createdAt,value
2022-08-27T00:02:36.377Z,4.43
2022-08-27T00:05:40.560Z,4.43
2022-08-27T00:08:45.781Z,5.05
2022-08-27T00:11:50.022Z,4.78
2022-08-27T00:14:53.477Z,4.68
2022-08-27T00:17:59.177Z,5.68
2022-08-27T00:21:03.163Z,4.70
2022-08-27T00:27:09.892Z,5.07
2022-08-27T00:30:18.456Z,4.53
2022-08-27T00:33:23.543Z,4.18
2022-08-27T00:36:26.849Z,3.85
2022-08-27T00:39:30.204Z,4.13
2022-08-27T00:42:33.972Z,5.15
2022-08-27T00:48:46.036Z,5.45
2022-08-27T00:51:58.349Z,5.43
2022-08-27T00:55:09.837Z,4.90
2022-08-27T00:58:20.197Z,5.57
2022-08-27T01:01:29.149Z,5.03
2022-08-27T01:04:38.541Z,5.85
2022-08-27T01:07:45.222Z,5.03
2022-08-27T01:10:51.589Z,5.38
2022-08-27T01:14:00.897Z,5.90
2022-08-27T01:17:07.134Z,5.15
2022-08-27T01:20:20.226Z,5.60
2022-08-27T01:23:32.967Z,5.35
2022-08-27T01:26:38.211Z,5.23
2022-08-27T01:29:42.350Z,6.10
2022-08-27T01:32:47.067Z,5.88
2022-08-27T01:35:53.003Z,6.30
2022-08-27T01:38:57.446Z,6.97
2022-08-27T01:42:07.450Z,6.63
2022-08-27T01:45:16.952Z,7.45
2022-08-27T01:48:23.177Z,6.72
2022-08-27T01:51:26.397Z,6.85
2022-08-27T01:54:31.119Z,6.68
2022-08-27T01:57:36.043Z,6.63
2022-08-27T02:00:44.307Z,6.80
2022-08-27T02:03:48.363Z,7.25
2022-08-27T02:06:51.668Z,6.95
2022-08-27T02:09:55.465Z,6.68
2022-08-27T02:13:00.420Z,5.90
2022-08-27T02:16:05.217Z,6.43
2022-08-27T02:19:09.740Z,5.82
2022-08-27T02:22:13.195Z,6.45
2022-08-27T02:25:20.002Z,5.68
2022-08-27T02:28:24.631Z,6.70
2022-08-27T02:31:28.887Z,6.22
2022-08-27T02:34:32.108Z,5.55
2022-08-27T02:37:37.821Z,5.67
2022-08-27T02:40:41.455Z,5.18
2022-08-27T02:43:46.479Z,4.65
2022-08-27T02:46:50.041Z,5.20
2022-08-27T02:49:56.927Z,4.90
2022-08-27T02:53:01.223Z,4.50
2022-08-27T02:56:05.141Z,4.80
2022-08-27T02:59:10.245Z,4.30
2022-08-27T03:02:13.580Z,4.45
2022-08-27T03:05:19.308Z,4.30
2022-08-27T03:08:24.642Z,4.30
2022-08-27T03:11:28.203Z,4.60
2022-08-27T03:14:32.972Z,4.30
2022-08-27T03:17:50.554Z,3.97
2022-08-27T03:20:56.671Z,4.25
2022-08-27T03:24:09.330Z,3.97
2022-08-27T03:27:17.958Z,4.22
2022-08-27T03:30:24.466Z,4.05
2022-08-27T03:33:30.145Z,5.43
2022-08-27T03:36:33.625Z,5.53
2022-08-27T03:39:36.856Z,4.45
2022-08-27T03:42:40.226Z,4.80
2022-08-27T03:45:48.339Z,4.47
2022-08-27T03:49:04.702Z,5.10
2022-08-27T03:52:08.886Z,5.07
2022-08-27T03:55:12.415Z,5.43
2022-08-27T03:58:16.896Z,5.30
2022-08-27T04:01:21.526Z,6.70
2022-08-27T04:04:25.751Z,7.50
2022-08-27T04:07:29.197Z,8.13
2022-08-27T04:10:34.783Z,7.60
2022-08-27T04:13:38.693Z,7.80
2022-08-27T04:16:43.580Z,7.65
2022-08-27T04:19:46.732Z,6.90
2022-08-27T04:22:49.943Z,6.80
2022-08-27T04:25:53.155Z,5.78
2022-08-27T04:28:58.085Z,7.00
2022-08-27T04:32:03.385Z,7.10
2022-08-27T04:35:07.510Z,7.07
2022-08-27T04:38:11.084Z,7.65
2022-08-27T04:41:21.133Z,7.03
2022-08-27T04:44:25.972Z,7.13
2022-08-27T04:47:31.035Z,7.82
2022-08-27T04:50:34.937Z,7.40
2022-08-27T04:53:38.121Z,8.73
2022-08-27T04:56:41.557Z,7.65
2022-08-27T04:59:44.990Z,7.18
2022-08-27T05:02:49.657Z,8.10
2022-08-27T05:05:54.770Z,7.03
2022-08-27T05:08:58.545Z,7.05
2022-08-27T05:12:03.453Z,6.53
2022-08-27T05:15:08.679Z,7.50
2022-08-27T05:18:13.709Z,6.97
2022-08-27T05:21:25.518Z,6.03
2022-08-27T05:24:28.899Z,4.90
2022-08-27T05:27:32.121Z,4.43
2022-08-27T05:30:38.731Z,3.90
2022-08-27T05:33:44.981Z,4.25
2022-08-27T05:36:48.696Z,4.13
2022-08-27T05:39:52.589Z,3.55
2022-08-27T05:42:55.880Z,3.33
2022-08-27T05:45:59.412Z,3.58
2022-08-27T05:49:04.306Z,2.80
2022-08-27T05:52:11.359Z,2.80
2022-08-27T05:55:14.652Z,2.97
2022-08-27T05:58:31.846Z,2.28
2022-08-27T06:01:38.855Z,2.15
2022-08-27T06:04:43.438Z,2.50
2022-08-27T06:07:46.823Z,2.17
2022-08-27T06:10:51.454Z,2.00
2022-08-27T06:13:54.675Z,2.20
2022-08-27T06:17:00.757Z,2.17
2022-08-27T06:20:09.135Z,1.92
2022-08-27T06:23:12.762Z,1.88
2022-08-27T06:26:19.988Z,1.92
2022-08-27T06:29:25.058Z,1.60
2022-08-27T06:32:28.204Z,1.33
2022-08-27T06:35:35.569Z,1.10
2022-08-27T06:38:39.784Z,0.85
2022-08-27T06:41:44.157Z,0.70
2022-08-27T06:44:47.769Z,0.73
2022-08-27T06:47:51.000Z,0.75
2022-08-27T06:50:55.517Z,0.90
2022-08-27T06:54:02.307Z,0.52
2022-08-27T06:57:05.934Z,0.68
2022-08-27T07:00:10.970Z,0.55
2022-08-27T07:03:14.641Z,0.50
2022-08-27T07:06:19.623Z,0.73
2022-08-27T07:09:24.682Z,0.85
2022-08-27T07:12:30.425Z,1.00
2022-08-27T07:15:35.134Z,1.15
2022-08-27T07:18:41.145Z,1.38
2022-08-27T07:21:46.178Z,1.60
2022-08-27T07:24:51.617Z,1.65
2022-08-27T07:27:55.486Z,3.25
2022-08-27T07:30:58.897Z,2.10
2022-08-27T07:34:02.288Z,2.40
2022-08-27T07:37:07.479Z,2.20
2022-08-27T07:40:14.886Z,1.70
2022-08-27T07:43:35.897Z,1.50
2022-08-27T07:46:40.525Z,1.40
2022-08-27T07:49:45.035Z,1.40
2022-08-27T07:52:49.650Z,1.57
2022-08-27T07:55:52.930Z,1.30
2022-08-27T07:58:56.505Z,1.30
2022-08-27T08:01:59.918Z,1.60
2022-08-27T08:05:03.238Z,1.50
2022-08-27T08:08:08.248Z,1.30
2022-08-27T08:11:14.235Z,1.17
2022-08-27T08:14:17.737Z,1.60
2022-08-27T08:17:21.235Z,1.50
2022-08-27T08:20:54.343Z,1.75
2022-08-27T08:23:49.550Z,1.50
2022-08-27T08:26:52.848Z,1.55
2022-08-27T08:29:56.229Z,2.90
2022-08-27T08:32:59.462Z,2.65
2022-08-27T08:36:08.270Z,1.90
2022-08-27T08:39:13.233Z,1.60
2022-08-27T08:42:32.018Z,1.55
2022-08-27T08:45:42.195Z,1.65
2022-08-27T08:48:53.154Z,1.40
2022-08-27T08:52:09.409Z,1.52
2022-08-27T08:55:36.919Z,1.48
2022-08-27T08:58:48.794Z,1.60
2022-08-27T09:01:54.692Z,1.85
2022-08-27T09:05:06.288Z,1.48
2022-08-27T09:08:37.623Z,1.73
2022-08-27T09:11:56.238Z,2.22
2022-08-27T09:15:06.224Z,1.75
2022-08-27T09:18:16.604Z,2.10
2022-08-27T09:21:33.020Z,1.90
2022-08-27T09:24:49.716Z,1.80
2022-08-27T09:28:02.311Z,1.75
2022-08-27T09:31:09.523Z,1.48
2022-08-27T09:34:13.580Z,1.75
2022-08-27T09:40:32.161Z,1.42
2022-08-27T09:43:39.190Z,1.75
2022-08-27T09:46:57.888Z,1.83
2022-08-27T09:50:09.599Z,1.88
2022-08-27T09:53:22.467Z,1.45
2022-08-27T09:56:31.808Z,1.55
2022-08-27T09:59:39.002Z,1.88
2022-08-27T10:02:52.934Z,1.80
2022-08-27T10:05:56.589Z,1.50
2022-08-27T10:09:07.367Z,1.77
2022-08-27T10:12:21.912Z,1.98
2022-08-27T10:15:41.225Z,1.40
2022-08-27T10:19:00.437Z,1.73
2022-08-27T10:22:15.349Z,1.90
2022-08-27T10:25:31.699Z,1.50
2022-08-27T10:28:55.176Z,1.90
2022-08-27T10:32:16.651Z,1.95
2022-08-27T10:35:26.215Z,1.83
2022-08-27T10:38:43.836Z,2.08
2022-08-27T10:42:02.359Z,1.80
2022-08-27T10:45:31.172Z,1.60
2022-08-27T10:48:46.707Z,2.10
2022-08-27T10:51:58.943Z,1.40
2022-08-27T10:55:11.197Z,1.70
2022-08-27T10:58:38.300Z,1.85
2022-08-27T11:01:52.478Z,2.03
2022-08-27T11:08:15.181Z,1.67
2022-08-27T11:12:12.793Z,1.80
2022-08-27T11:15:04.547Z,2.10
2022-08-27T11:18:28.588Z,2.00
2022-08-27T11:21:42.228Z,1.60
2022-08-27T11:24:55.258Z,1.90
2022-08-27T11:28:01.479Z,2.17
2022-08-27T11:31:14.452Z,2.20
2022-08-27T11:34:28.679Z,1.73
2022-08-27T11:41:24.451Z,1.80
2022-08-27T11:44:29.258Z,1.88
2022-08-27T11:47:32.803Z,1.70
2022-08-27T11:50:38.745Z,2.10
2022-08-27T11:53:57.555Z,2.05
2022-08-27T11:57:00.980Z,1.80
2022-08-27T12:00:20.113Z,2.30
2022-08-27T12:03:32.506Z,2.10
2022-08-27T12:06:46.097Z,2.67
2022-08-27T12:10:25.262Z,2.35
2022-08-27T12:13:40.524Z,2.30
2022-08-27T12:16:56.114Z,1.77
2022-08-27T12:20:15.409Z,2.10
2022-08-27T12:23:42.366Z,2.08
2022-08-27T12:27:00.968Z,2.08
2022-08-27T12:30:23.051Z,1.92
2022-08-27T12:33:34.561Z,2.45
2022-08-27T12:36:38.003Z,2.28
2022-08-27T12:39:49.412Z,1.90
2022-08-27T12:43:09.391Z,2.30
2022-08-27T12:46:18.442Z,1.80
2022-08-27T12:49:38.975Z,2.03
2022-08-27T12:53:23.195Z,2.03
2022-08-27T12:56:59.008Z,1.90
2022-08-27T13:00:19.111Z,2.10
2022-08-27T13:03:33.677Z,1.77
2022-08-27T13:06:38.020Z,2.28
2022-08-27T13:09:41.703Z,1.85
2022-08-27T13:12:47.487Z,2.60
2022-08-27T13:15:58.502Z,2.33
2022-08-27T13:19:02.174Z,2.00
2022-08-27T13:22:07.696Z,2.00
2022-08-27T13:25:23.607Z,2.08
2022-08-27T13:28:30.534Z,2.17
2022-08-27T13:31:37.132Z,1.95
2022-08-27T13:34:42.423Z,2.10
2022-08-27T13:37:53.235Z,1.67
2022-08-27T13:41:01.289Z,2.25
2022-08-27T13:44:12.067Z,1.80
2022-08-27T13:47:22.056Z,2.17
2022-08-27T13:50:28.897Z,2.33
2022-08-27T13:53:52.349Z,2.30
2022-08-27T13:57:08.202Z,2.22
2022-08-27T14:00:17.089Z,2.60
2022-08-27T14:03:34.055Z,2.30
2022-08-27T14:06:47.092Z,2.20
2022-08-27T14:09:55.703Z,2.60
2022-08-27T14:13:01.953Z,2.15
2022-08-27T14:16:23.195Z,2.30
2022-08-27T14:19:36.187Z,2.40
2022-08-27T14:22:39.928Z,2.47
2022-08-27T14:25:43.260Z,2.00
2022-08-27T14:28:47.285Z,2.60
2022-08-27T14:31:50.470Z,2.35
2022-08-27T14:34:55.068Z,2.28
2022-08-27T14:38:02.295Z,2.45
2022-08-27T14:41:06.705Z,2.75
2022-08-27T14:44:10.207Z,2.42
2022-08-27T14:47:16.000Z,2.25
2022-08-27T14:50:21.590Z,1.98
2022-08-27T14:53:25.314Z,2.38
2022-08-27T14:56:28.924Z,3.40
2022-08-27T14:59:33.873Z,2.50
2022-08-27T15:02:42.800Z,2.55
2022-08-27T15:05:47.749Z,3.15
2022-08-27T15:08:53.243Z,2.25
2022-08-27T15:11:58.357Z,2.20
2022-08-27T15:15:01.665Z,2.28
2022-08-27T15:18:05.755Z,2.45
2022-08-27T15:21:10.571Z,2.20
2022-08-27T15:24:20.290Z,2.33
2022-08-27T15:27:26.210Z,2.25
2022-08-27T15:30:41.453Z,2.97
2022-08-27T15:33:45.481Z,2.13
2022-08-27T15:36:50.536Z,2.08
2022-08-27T15:39:54.334Z,1.85
2022-08-27T15:43:03.397Z,2.05
2022-08-27T15:46:07.403Z,2.22
2022-08-27T15:49:15.258Z,1.80
2022-08-27T15:52:22.928Z,1.90
2022-08-27T15:55:32.103Z,2.08
2022-08-27T15:58:37.799Z,1.98
2022-08-27T16:01:41.509Z,6.78
2022-08-27T16:04:49.192Z,3.28
2022-08-27T16:07:53.875Z,9.07
2022-08-27T16:10:58.183Z,9.20
2022-08-27T16:14:03.129Z,6.05
2022-08-27T16:17:06.510Z,2.40
2022-08-27T16:20:16.322Z,2.53
2022-08-27T16:23:21.466Z,2.58
2022-08-27T16:26:24.733Z,2.28
2022-08-27T16:29:28.065Z,2.30
2022-08-27T16:32:33.557Z,1.70
2022-08-27T16:35:37.151Z,2.10
2022-08-27T16:38:42.164Z,2.20
2022-08-27T16:41:46.713Z,2.10
2022-08-27T16:44:51.109Z,2.17
2022-08-27T16:48:12.019Z,2.50
2022-08-27T16:51:19.950Z,2.67
2022-08-27T16:54:25.107Z,1.90
2022-08-27T16:57:28.579Z,8.95
2022-08-27T17:00:32.288Z,8.45
2022-08-27T17:04:07.434Z,4.97
2022-08-27T17:07:07.675Z,3.85
2022-08-27T17:10:13.678Z,2.45
2022-08-27T17:13:20.283Z,2.33
2022-08-27T17:16:29.599Z,2.50
2022-08-27T17:19:34.810Z,1.98
2022-08-27T17:22:38.418Z,1.67
2022-08-27T17:25:43.179Z,2.20
2022-08-27T17:28:47.682Z,2.17
2022-08-27T17:31:51.228Z,6.97
2022-08-27T17:34:55.003Z,4.53
2022-08-27T17:37:58.418Z,2.28
2022-08-27T17:41:11.790Z,2.38
2022-08-27T17:44:22.558Z,1.97
2022-08-27T17:47:26.847Z,1.67
2022-08-27T17:50:30.701Z,1.58
2022-08-27T17:56:40.083Z,1.58
2022-08-27T17:59:43.802Z,2.10
2022-08-27T18:02:50.766Z,1.80
2022-08-27T18:05:54.359Z,1.75
2022-08-27T18:08:57.742Z,1.65
2022-08-27T18:12:02.921Z,1.88
2022-08-27T18:15:14.538Z,1.90
2022-08-27T18:18:18.050Z,1.67
2022-08-27T18:21:25.387Z,1.65
2022-08-27T18:24:29.513Z,2.10
2022-08-27T18:27:37.696Z,1.90
2022-08-27T18:30:44.147Z,2.03
2022-08-27T18:33:47.467Z,2.10
2022-08-27T18:36:52.563Z,2.30
2022-08-27T18:39:55.816Z,2.40
2022-08-27T18:43:00.526Z,2.00
2022-08-27T18:46:05.818Z,2.05
2022-08-27T18:49:10.967Z,2.40
2022-08-27T18:52:14.565Z,1.80
2022-08-27T18:55:21.058Z,2.28
2022-08-27T18:58:27.035Z,2.20
2022-08-27T19:01:31.873Z,2.33
2022-08-27T19:04:35.428Z,2.50
2022-08-27T19:07:39.373Z,3.05
2022-08-27T19:13:50.756Z,2.65
2022-08-27T19:16:56.054Z,3.03
2022-08-27T19:20:01.152Z,2.45
2022-08-27T19:23:04.643Z,2.10
2022-08-27T19:26:15.012Z,2.45
2022-08-27T19:29:19.985Z,2.80
2022-08-27T19:32:24.261Z,2.80
2022-08-27T19:35:27.567Z,2.90
2022-08-27T19:38:32.991Z,2.40
2022-08-27T19:41:36.600Z,2.78
2022-08-27T19:44:41.474Z,2.80
2022-08-27T19:47:44.844Z,2.55
2022-08-27T19:50:48.596Z,3.05
2022-08-27T19:53:54.246Z,2.90
2022-08-27T19:56:57.729Z,2.78
2022-08-27T20:00:02.578Z,2.67
2022-08-27T20:03:05.822Z,2.70
2022-08-27T20:06:09.698Z,3.20
2022-08-27T20:09:16.056Z,2.60
2022-08-27T20:12:19.955Z,2.25
2022-08-27T20:15:25.289Z,2.25
2022-08-27T20:18:28.464Z,2.40
2022-08-27T20:21:32.326Z,2.87
2022-08-27T20:24:35.777Z,2.53
2022-08-27T20:27:39.300Z,2.17
2022-08-27T20:30:45.078Z,2.75
2022-08-27T20:33:52.530Z,2.85
2022-08-27T20:36:56.077Z,2.72
2022-08-27T20:39:59.425Z,3.28
2022-08-27T20:43:02.927Z,3.00
2022-08-27T20:46:10.161Z,2.45
2022-08-27T20:49:14.420Z,2.80
2022-08-27T20:52:19.196Z,3.22
2022-08-27T20:55:23.706Z,2.92
2022-08-27T20:58:45.220Z,3.00
2022-08-27T21:01:49.974Z,2.97
2022-08-27T21:04:54.269Z,2.65
2022-08-27T21:07:57.493Z,3.00
2022-08-27T21:11:01.742Z,2.80
2022-08-27T21:14:05.247Z,2.80
2022-08-27T21:17:11.145Z,3.22
2022-08-27T21:20:15.426Z,2.92
2022-08-27T21:23:18.817Z,2.60
2022-08-27T21:26:23.018Z,3.10
2022-08-27T21:29:26.350Z,3.13
2022-08-27T21:32:31.024Z,3.10
2022-08-27T21:35:34.299Z,3.00
2022-08-27T21:38:37.713Z,3.60
2022-08-27T21:41:41.065Z,3.47
2022-08-27T21:44:44.693Z,3.67
2022-08-27T21:47:51.807Z,4.50
2022-08-27T21:50:55.775Z,3.55
2022-08-27T21:54:00.817Z,3.65
2022-08-27T21:57:04.833Z,3.60
2022-08-27T22:03:24.742Z,3.20
2022-08-27T22:06:28.031Z,3.83
2022-08-27T22:09:31.183Z,4.03
2022-08-27T22:12:34.629Z,3.83
2022-08-27T22:15:38.710Z,3.90
2022-08-27T22:18:43.465Z,3.78
2022-08-27T22:21:48.005Z,3.72
2022-08-27T22:24:51.610Z,4.20
2022-08-27T22:27:55.714Z,3.63
2022-08-27T22:34:03.901Z,4.10
2022-08-27T22:37:07.248Z,4.13
2022-08-27T22:40:19.311Z,4.28
2022-08-27T22:43:23.443Z,3.75
2022-08-27T22:46:26.631Z,4.32
2022-08-27T22:49:31.336Z,4.50
2022-08-27T22:52:34.839Z,3.80
2022-08-27T22:55:38.124Z,3.92
2022-08-27T22:58:46.013Z,3.73
2022-08-27T23:01:49.608Z,3.83
2022-08-27T23:04:55.570Z,4.30
2022-08-27T23:07:59.245Z,3.92
2022-08-27T23:11:03.110Z,4.33
2022-08-27T23:14:06.387Z,4.13
2022-08-27T23:17:09.669Z,3.60
2022-08-27T23:20:15.468Z,4.93
2022-08-27T23:23:20.241Z,4.57
2022-08-27T23:26:41.505Z,4.20
2022-08-27T23:29:47.023Z,4.15
2022-08-27T23:32:54.115Z,4.38
2022-08-27T23:35:58.801Z,4.07
2022-08-27T23:39:02.172Z,4.75
2022-08-27T23:42:06.011Z,4.55
2022-08-27T23:45:13.033Z,4.88
2022-08-27T23:48:16.768Z,4.55
2022-08-27T23:51:21.611Z,4.88
2022-08-27T23:54:24.956Z,5.10
2022-08-27T23:57:28.581Z,4.37
